MDST/STI METAR and TAF weather

Enter ICAO airport designator
Station Type Date Time Source
MDST METAR 2022/01/19 19:00 UTC NOAA

MDST 191900Z 13008KT 9999 SCT022 29/22 Q1017


Station Type Date Time Source
MDST Decoded METAR 2022/01/19 19:00 UTC NOAA

Santiago, Dominican Republic (MDST) 19-27N 070-42W
Jan 19, 2022 - 02:00 PM EST / 2022.01.19 1900 UTC
Wind: from the SE (130 degrees) at 9 MPH (8 KT):0
Visibility: greater than 7 mile(s):0
Sky conditions: partly cloudy
Temperature: 84 F (29 C)
Dew Point: 71 F (22 C)
Relative Humidity: 65%
Pressure (altimeter): 30.03 in. Hg (1017 hPa)
ob: MDST 191900Z 13008KT 9999 SCT022 29/22 Q1017
cycle: 19

Station Type Date Time Source
MDST TAF 2022/01/19 18:59 UTC NOAA

TAF MDST 191600Z 1918/2018 14008KT 9999 SCT018 PROB30 1918/1923 8000 -SH BKN014 SCT070

Example: see airport list